Prudhoe Bay, AK

10:08 AM AKDT on September 18, 2014 (GMT -0800)
Deadhorse | Change Station
CLOSE
Current Station
Airport
Location: Deadhorse,
Elevation: 59 ft
Nearby Weather Stations

Elev 59 ft 70.19 °N, 148.47 °W | Updated 15 minutes ago

Overcast
Overcast
36 °F
Feels Like 24 °F
N
23
Wind Variable Wind from East
Gusts 32 mph

Today
High -- | Low -- °F
--% Chance of Precip.
Yesterday
High -- | Low -- °F
Precip. -- in
7:18 AM 8:14 PM
Waning Crescent, 25% visible
Pressure 29.48 in
Visibility 6.0 miles
Clouds Overcast 400 ft
Windchill 24 °F
Dew Point 34 °F
Humidity 93%
Rainfall 0.00 in
Snow Depth 0 in , 67 in , 109 in
UV 0 out of 12
Pollen Not available.
Air Quality Not available.
Flu Activity Not available.
METAR PASC 181753Z 08020G28KT 6SM BR OVC004 02/01 A2948 RMK AO2 PK WND 08028/1750 RAE48 SLP982 P0000 60000 T00220011 10022 20022 51004

More Conditions Fewer Conditions

Pressure 29.48 in
Visibility 6.0 miles
Clouds Overcast 400 ft
Windchill 24 °F
Dew Point 34 °F
Humidity 93%
Rainfall 0.00 in
Snow Depth 0 in , 67 in , 109 in
UV 0 out of 12
Pollen Not available.
Air Quality Not available.
Flu Activity Not available.
METAR PASC 181753Z 08020G28KT 6SM BR OVC004 02/01 A2948 RMK AO2 PK WND 08028/1750 RAE48 SLP982 P0000 60000 T00220011 10022 20022 51004

More Conditions Fewer Conditions

10-Day Weather Forecast

Almanac

Astronomy

Sep. 18, 2014 Rise Set
Actual Time 7:18 AM AKDT 8:14 PM AKDT
Civil Twilight 6:15 AM AKDT 9:17 PM AKDT
Nautical Twilight 4:50 AM AKDT 10:40 PM AKDT
Astronomical Twilight 2:20 AM AKDT 1:04 AM AKDT
Moon No Moon Rise 7:18 PM AKDT
Length of Visible Light 15h 02m
Length of Day
12h 55m
Tomorrow will be 8m 41s shorter.
Waning Crescent, 25% of the Moon is Illuminated
Today
Waning Crescent
Sep 24
New
Oct 1
First Quarter
Oct 8
Full
Oct 15
Last Quarter

Today's Extremes

State Highs State Lows

Community

WunderPhotos

Upload Photos

1,754,410 photos uploaded!

Nearby

Snow Depth

Station Depth Elevation
Coldfoot 0 in 1040 ft
Nuka Glacier 67 in 1250 ft
Susitna Valley High 109 in 375 ft
Grandview 3 in 1100 ft
Upper Chena 1 in 2850 ft

Earthquake Activity

City Distance Mag. Time & Date
No recent earthquake activity has been reported nearby.
Minimum magnitude displayed is 2.5.

Coastal Water Temperatures

Place Temperature
No Stations Reporting

Nearby Weather Stations